Time;durP1;ratioP1;P1;durP2;ratioP2;P2;SDS_P1;SDS_P2;PMS_P1;PMS_P2;Temp;Humidity;BMP_temperature;BMP_pressure;BME280_temperature;BME280_humidity;BME280_pressure;Samples;Min_cycle;Max_cycle;Signal;HPM_P1;HPM_P2
2021/11/08 00:01:00;;;;;;;;;;;13.20;99.90;;;;;;6125067;23;20423;-79
2021/11/08 00:03:30;;;;;;;;;;;13.20;99.90;;;;;;6127357;23;19905;-79
2021/11/08 00:05:59;;;;;;;;;;;13.10;99.90;;;;;;6126166;23;19904;-78
2021/11/08 00:08:25;;;;;;;;;;;13.20;99.90;;;;;;6126039;23;19952;-79
2021/11/08 00:10:51;;;;;;;;;;;13.20;99.90;;;;;;6126132;23;19908;-78
2021/11/08 00:13:17;;;;;;;;;;;13.20;99.90;;;;;;6126209;23;19908;-78
2021/11/08 00:15:54;;;;;;;;;;;13.20;99.90;;;;;;6126364;23;19905;-78
2021/11/08 00:19:09;;;;;;;;;;;13.20;99.90;;;;;;6125897;23;19920;-78
2021/11/08 00:21:08;;;;;;;;;;;13.30;99.90;;;;;;6112331;23;20318;-78
2021/11/08 00:23:34;;;;;;;;;;;13.30;99.90;;;;;;6126901;23;19905;-79
2021/11/08 00:26:01;;;;;;;;;;;13.30;99.90;;;;;;6126885;23;20245;-79
2021/11/08 00:28:27;;;;;;;;;;;13.30;99.90;;;;;;6128268;23;19912;-79
2021/11/08 00:30:54;;;;;;;;;;;13.30;99.90;;;;;;6127084;23;19909;-79
2021/11/08 00:33:21;;;;;;;;;;;13.30;99.90;;;;;;6102934;23;19909;-79
2021/11/08 00:35:48;;;;;;;;;;;13.40;99.90;;;;;;6105367;23;20036;-79
2021/11/08 00:38:14;;;;;;;;;;;13.30;99.90;;;;;;6130432;23;20357;-78
2021/11/08 00:40:40;;;;;;;;;;;13.30;99.90;;;;;;6130452;23;20325;-79
2021/11/08 00:43:07;;;;;;;;;;;13.30;99.90;;;;;;6127110;23;19932;-78
2021/11/08 00:45:33;;;;;;;;;;;13.20;99.90;;;;;;6126567;23;19967;-79
2021/11/08 00:48:00;;;;;;;;;;;13.20;99.90;;;;;;6125434;23;19905;-79
2021/11/08 00:50:25;;;;;;;;;;;13.20;99.90;;;;;;6126009;23;20349;-78
2021/11/08 00:52:51;;;;;;;;;;;13.30;99.90;;;;;;6126543;23;19905;-78
2021/11/08 00:55:17;;;;;;;;;;;13.30;99.90;;;;;;6127088;23;19980;-78
2021/11/08 00:57:47;;;;;;;;;;;13.30;99.90;;;;;;6126673;23;19932;-78
2021/11/08 01:00:15;;;;;;;;;;;13.30;99.90;;;;;;6127340;23;20222;-78
2021/11/08 01:02:41;;;;;;;;;;;13.20;99.90;;;;;;6100514;23;19913;-79
2021/11/08 01:05:08;;;;;;;;;;;13.20;99.90;;;;;;6127745;23;19905;-79
2021/11/08 01:07:34;;;;;;;;;;;13.20;99.90;;;;;;6127041;23;19905;-79
2021/11/08 01:10:00;;;;;;;;;;;13.20;99.90;;;;;;6127568;23;19932;-78
2021/11/08 01:12:27;;;;;;;;;;;13.20;99.90;;;;;;6126980;23;20425;-78
2021/11/08 01:14:54;;;;;;;;;;;13.10;99.90;;;;;;6126649;23;19905;-79
2021/11/08 01:17:20;;;;;;;;;;;13.20;99.90;;;;;;6126500;23;19920;-78
2021/11/08 01:19:46;;;;;;;;;;;13.40;99.90;;;;;;6126668;23;19905;-78
2021/11/08 01:22:20;;;;;;;;;;;13.40;99.90;;;;;;6126200;23;19992;-78
2021/11/08 01:24:56;;;;;;;;;;;13.40;99.90;;;;;;6126968;23;19937;-78
2021/11/08 01:27:23;;;;;;;;;;;13.40;99.90;;;;;;6101065;23;19905;-78
2021/11/08 01:29:48;;;;;;;;;;;13.40;99.90;;;;;;6128169;23;19912;-78
2021/11/08 01:32:14;;;;;;;;;;;13.40;99.90;;;;;;6126184;23;19905;-78
2021/11/08 01:34:40;;;;;;;;;;;13.30;99.90;;;;;;6127703;23;19909;-79
2021/11/08 01:37:06;;;;;;;;;;;13.20;99.90;;;;;;6127641;23;19909;-79
2021/11/08 01:39:36;;;;;;;;;;;13.30;99.90;;;;;;6125985;23;19905;-78
2021/11/08 01:42:07;;;;;;;;;;;13.30;99.90;;;;;;6127719;23;20101;-78
2021/11/08 01:44:33;;;;;;;;;;;13.30;99.90;;;;;;6127330;23;19913;-78
2021/11/08 01:47:01;;;;;;;;;;;13.40;99.90;;;;;;6127943;23;19984;-78
2021/11/08 01:49:27;;;;;;;;;;;13.40;99.90;;;;;;6128218;23;20326;-77
2021/11/08 01:51:53;;;;;;;;;;;13.30;99.90;;;;;;6127660;23;19982;-78
2021/11/08 01:54:19;;;;;;;;;;;13.30;99.90;;;;;;6127768;23;19905;-79
2021/11/08 01:56:45;;;;;;;;;;;13.30;99.90;;;;;;6127532;23;19927;-79
2021/11/08 01:59:11;;;;;;;;;;;13.30;99.90;;;;;;6128357;23;19905;-79
2021/11/08 02:01:37;;;;;;;;;;;13.20;99.90;;;;;;6128103;23;19909;-79
2021/11/08 02:04:03;;;;;;;;;;;13.20;99.90;;;;;;6127817;23;19959;-78
2021/11/08 02:06:29;;;;;;;;;;;13.10;99.90;;;;;;6127966;23;19980;-78
2021/11/08 02:08:54;;;;;;;;;;;13.20;99.90;;;;;;6127729;23;19905;-78
2021/11/08 02:11:20;;;;;;;;;;;13.20;99.90;;;;;;6127953;23;19912;-78
2021/11/08 02:13:46;;;;;;;;;;;13.20;99.90;;;;;;6128003;23;19911;-78
2021/11/08 02:16:12;;;;;;;;;;;13.20;99.90;;;;;;6102403;23;19905;-78
2021/11/08 02:18:39;;;;;;;;;;;13.30;99.90;;;;;;6128372;23;19911;-78
2021/11/08 02:21:08;;;;;;;;;;;13.30;99.90;;;;;;6126716;23;19916;-78
2021/11/08 02:23:34;;;;;;;;;;;13.20;99.90;;;;;;6128083;23;20350;-78
2021/11/08 02:26:03;;;;;;;;;;;13.10;99.90;;;;;;6127579;23;19909;-77
2021/11/08 02:28:29;;;;;;;;;;;13.10;99.90;;;;;;6127696;23;19905;-78
2021/11/08 02:30:57;;;;;;;;;;;13.10;99.90;;;;;;6128365;23;20308;-78
2021/11/08 02:33:25;;;;;;;;;;;13.10;99.90;;;;;;6128003;23;19988;-78
2021/11/08 02:35:52;;;;;;;;;;;13.10;99.90;;;;;;6128031;23;19908;-78
2021/11/08 02:38:27;;;;;;;;;;;13.10;99.90;;;;;;6127379;23;19905;-78
2021/11/08 02:40:54;;;;;;;;;;;13.10;99.90;;;;;;6128438;23;19928;-80
2021/11/08 02:43:22;;;;;;;;;;;13.30;99.90;;;;;;6128793;23;19909;-78
2021/11/08 02:45:51;;;;;;;;;;;13.40;99.90;;;;;;6101841;23;20322;-78
2021/11/08 02:48:17;;;;;;;;;;;13.40;99.90;;;;;;6128384;23;19937;-78
2021/11/08 02:50:43;;;;;;;;;;;13.40;99.90;;;;;;6127883;23;19905;-78
2021/11/08 02:53:13;;;;;;;;;;;13.40;99.90;;;;;;6127678;23;19908;-78
2021/11/08 02:55:40;;;;;;;;;;;13.30;99.90;;;;;;6101550;23;19916;-78
2021/11/08 02:58:06;;;;;;;;;;;13.30;99.90;;;;;;6126841;23;19916;-79
2021/11/08 03:00:31;;;;;;;;;;;13.30;99.90;;;;;;6127253;23;20192;-78
2021/11/08 03:02:57;;;;;;;;;;;13.30;99.90;;;;;;6127479;23;20168;-77
2021/11/08 03:05:32;;;;;;;;;;;13.30;99.90;;;;;;6127486;23;19905;-78
2021/11/08 03:07:58;;;;;;;;;;;13.30;99.90;;;;;;6124390;23;20337;-78
2021/11/08 03:10:24;;;;;;;;;;;13.30;99.90;;;;;;6101153;23;19905;-78
2021/11/08 03:12:53;;;;;;;;;;;13.20;99.90;;;;;;6127164;23;19915;-78
2021/11/08 03:18:07;;;;;;;;;;;13.30;99.90;;;;;;6126710;23;19913;-78
2021/11/08 03:20:34;;;;;;;;;;;13.30;99.90;;;;;;6126994;23;20024;-79
2021/11/08 03:23:04;;;;;;;;;;;13.30;99.90;;;;;;6126643;23;19912;-78
2021/11/08 03:28:03;;;;;;;;;;;13.30;99.90;;;;;;6126546;23;20297;-78
2021/11/08 03:30:36;;;;;;;;;;;13.30;99.90;;;;;;6126776;23;20249;-78
2021/11/08 03:33:02;;;;;;;;;;;13.10;99.90;;;;;;6100551;23;20288;-78
2021/11/08 03:35:29;;;;;;;;;;;13.10;99.90;;;;;;6126558;23;19998;-79
2021/11/08 03:37:56;;;;;;;;;;;13.10;99.90;;;;;;6126380;23;19916;-78
2021/11/08 03:40:21;;;;;;;;;;;13.00;99.90;;;;;;6127046;23;19905;-78
2021/11/08 03:42:48;;;;;;;;;;;12.90;99.90;;;;;;6126995;23;19909;-79
2021/11/08 03:45:14;;;;;;;;;;;12.80;99.90;;;;;;6125920;23;19955;-78
2021/11/08 03:47:39;;;;;;;;;;;12.70;99.90;;;;;;6124229;23;19908;-78
2021/11/08 03:50:07;;;;;;;;;;;12.60;99.90;;;;;;6124318;23;19912;-78
2021/11/08 03:52:33;;;;;;;;;;;12.50;99.90;;;;;;6124460;23;19905;-78
2021/11/08 03:54:59;;;;;;;;;;;12.60;99.90;;;;;;6125402;23;19912;-78
2021/11/08 03:57:25;;;;;;;;;;;12.50;99.90;;;;;;6125869;23;19933;-78
2021/11/08 03:59:50;;;;;;;;;;;12.50;99.90;;;;;;6125621;23;19916;-78
2021/11/08 04:02:16;;;;;;;;;;;12.60;99.90;;;;;;6125986;23;19955;-78
2021/11/08 04:05:03;;;;;;;;;;;12.60;99.90;;;;;;6125900;23;20249;-79
2021/11/08 04:07:28;;;;;;;;;;;12.60;99.90;;;;;;6125441;23;19905;-78
2021/11/08 04:09:55;;;;;;;;;;;12.60;99.90;;;;;;6127076;23;20381;-79
2021/11/08 04:12:22;;;;;;;;;;;12.60;99.90;;;;;;6126915;23;19905;-78
2021/11/08 04:14:48;;;;;;;;;;;12.50;99.90;;;;;;6126700;23;20222;-79
2021/11/08 04:17:14;;;;;;;;;;;12.40;99.90;;;;;;6099554;23;19905;-78
2021/11/08 04:19:40;;;;;;;;;;;12.40;99.90;;;;;;6126814;23;19937;-78
2021/11/08 04:22:06;;;;;;;;;;;12.40;99.90;;;;;;6126294;23;20249;-79
2021/11/08 04:24:32;;;;;;;;;;;12.40;99.90;;;;;;6126059;23;19944;-79
2021/11/08 04:26:58;;;;;;;;;;;12.40;99.90;;;;;;6126466;23;20011;-78
2021/11/08 04:29:24;;;;;;;;;;;12.40;99.90;;;;;;6133096;23;19908;-79
2021/11/08 04:31:51;;;;;;;;;;;12.40;99.90;;;;;;6139514;23;19964;-78
2021/11/08 04:37:09;;;;;;;;;;;12.30;99.90;;;;;;6145106;23;19951;-79
2021/11/08 04:42:26;;;;;;;;;;;12.50;99.90;;;;;;6130144;23;19976;-78
2021/11/08 04:50:21;;;;;;;;;;;12.70;99.90;;;;;;6141288;23;20442;-79
2021/11/08 05:22:25;;;;;;;;;;;12.60;99.90;;;;;;6125915;23;19916;-78
2021/11/08 05:25:06;;;;;;;;;;;12.70;99.90;;;;;;6125438;23;20330;-78
2021/11/08 05:30:15;;;;;;;;;;;12.80;99.90;;;;;;6135108;23;19905;-78
2021/11/08 05:32:42;;;;;;;;;;;12.80;99.90;;;;;;6099739;23;19987;-78
2021/11/08 05:35:10;;;;;;;;;;;12.80;99.90;;;;;;6125837;23;19905;-78
2021/11/08 05:37:37;;;;;;;;;;;12.80;99.90;;;;;;6125510;23;19936;-77
2021/11/08 05:40:14;;;;;;;;;;;12.80;99.90;;;;;;6126050;23;19905;-77
2021/11/08 05:42:40;;;;;;;;;;;12.80;99.90;;;;;;6125896;23;19924;-77
2021/11/08 05:45:07;;;;;;;;;;;12.80;99.90;;;;;;6125630;23;20338;-78
2021/11/08 05:47:32;;;;;;;;;;;12.80;99.90;;;;;;6125131;23;19905;-79
2021/11/08 05:49:59;;;;;;;;;;;12.80;99.90;;;;;;6126615;23;19928;-78
2021/11/08 05:52:25;;;;;;;;;;;12.70;99.90;;;;;;6126223;23;19905;-80
2021/11/08 05:54:51;;;;;;;;;;;12.70;99.90;;;;;;6126632;23;19959;-77
2021/11/08 06:49:24;;;;;;;;;;;12.40;99.90;;;;;;6127900;23;20098;-78
2021/11/08 06:51:51;;;;;;;;;;;12.40;99.90;;;;;;6127735;23;19909;-78
2021/11/08 06:54:21;;;;;;;;;;;12.40;99.90;;;;;;6101637;23;19905;-77
2021/11/08 06:56:59;;;;;;;;;;;12.30;99.90;;;;;;6126965;23;19905;-78
2021/11/08 06:59:27;;;;;;;;;;;12.30;99.90;;;;;;6126650;23;19912;-77
2021/11/08 07:01:56;;;;;;;;;;;12.30;99.90;;;;;;6126995;23;19909;-78
2021/11/08 07:04:22;;;;;;;;;;;12.30;99.90;;;;;;6101205;23;19905;-78
2021/11/08 07:06:48;;;;;;;;;;;12.30;99.90;;;;;;6128096;23;19908;-78
2021/11/08 07:09:14;;;;;;;;;;;12.30;99.90;;;;;;6127207;23;20331;-79
2021/11/08 07:11:40;;;;;;;;;;;12.30;99.90;;;;;;6127807;23;19909;-78
2021/11/08 07:14:06;;;;;;;;;;;12.30;99.90;;;;;;6127467;23;19905;-78
2021/11/08 07:16:38;;;;;;;;;;;12.20;99.90;;;;;;6127943;23;19905;-77
2021/11/08 07:19:04;;;;;;;;;;;12.10;99.90;;;;;;6101553;23;19905;-77
2021/11/08 07:21:30;;;;;;;;;;;12.10;99.90;;;;;;6127402;23;19917;-78
2021/11/08 07:23:56;;;;;;;;;;;12.00;99.90;;;;;;6127266;23;19905;-78
2021/11/08 07:26:22;;;;;;;;;;;12.10;99.90;;;;;;6124921;23;20297;-77
2021/11/08 07:28:47;;;;;;;;;;;12.00;99.90;;;;;;6099923;23;19936;-77
2021/11/08 07:31:13;;;;;;;;;;;12.00;99.90;;;;;;6125682;23;19905;-77
2021/11/08 07:33:39;;;;;;;;;;;12.00;99.90;;;;;;6125641;23;20337;-77
2021/11/08 07:36:05;;;;;;;;;;;12.00;99.90;;;;;;6127127;23;19905;-77
2021/11/08 07:38:32;;;;;;;;;;;12.00;99.90;;;;;;6126473;23;20278;-77
2021/11/08 07:40:58;;;;;;;;;;;12.00;99.90;;;;;;6127500;23;19952;-78
2021/11/08 07:43:24;;;;;;;;;;;12.00;99.90;;;;;;6126525;23;19912;-77
2021/11/08 07:45:49;;;;;;;;;;;12.00;99.90;;;;;;6126307;23;19953;-77
2021/11/08 07:48:15;;;;;;;;;;;12.00;99.90;;;;;;6126366;23;19905;-77
2021/11/08 07:50:41;;;;;;;;;;;12.10;99.90;;;;;;6127283;23;19905;-77
2021/11/08 07:53:07;;;;;;;;;;;12.10;99.90;;;;;;6127515;23;19909;-78
2021/11/08 07:55:33;;;;;;;;;;;12.20;99.90;;;;;;6127592;23;19909;-77
2021/11/08 07:58:01;;;;;;;;;;;12.20;99.90;;;;;;6125859;23;19905;-78
2021/11/08 08:00:26;;;;;;;;;;;12.30;99.90;;;;;;6126003;23;19905;-78
2021/11/08 08:02:52;;;;;;;;;;;12.30;99.90;;;;;;6127860;23;20633;-78
2021/11/08 08:05:19;;;;;;;;;;;12.30;99.90;;;;;;6127264;23;20396;-78
2021/11/08 08:07:45;;;;;;;;;;;12.30;99.90;;;;;;6126458;23;19995;-78
2021/11/08 08:10:11;;;;;;;;;;;12.40;99.90;;;;;;6126391;23;19905;-78
2021/11/08 08:12:37;;;;;;;;;;;12.40;99.90;;;;;;6126055;23;20385;-78
2021/11/08 08:15:03;;;;;;;;;;;12.30;99.90;;;;;;6125204;23;19937;-78
2021/11/08 08:17:29;;;;;;;;;;;12.40;99.90;;;;;;6127000;23;20325;-75
2021/11/08 08:19:54;;;;;;;;;;;12.30;99.90;;;;;;6126501;23;19905;-75
2021/11/08 08:22:21;;;;;;;;;;;12.30;99.90;;;;;;6126433;23;19948;-75
2021/11/08 08:24:46;;;;;;;;;;;12.30;99.90;;;;;;6126131;23;19915;-77
2021/11/08 08:27:12;;;;;;;;;;;12.40;99.90;;;;;;6125955;23;19980;-76
2021/11/08 08:29:38;;;;;;;;;;;12.30;99.90;;;;;;6101430;23;20385;-75
2021/11/08 08:32:03;;;;;;;;;;;12.40;99.90;;;;;;6126276;23;19995;-75
2021/11/08 08:34:30;;;;;;;;;;;12.40;99.90;;;;;;6126472;23;20032;-75
2021/11/08 08:36:57;;;;;;;;;;;12.40;99.90;;;;;;6126661;23;19924;-75
2021/11/08 08:39:23;;;;;;;;;;;12.50;99.90;;;;;;6125791;23;20245;-75
2021/11/08 08:41:49;;;;;;;;;;;12.50;99.90;;;;;;6125722;23;19912;-75
2021/11/08 08:44:15;;;;;;;;;;;12.50;99.90;;;;;;6097633;23;19923;-75
2021/11/08 08:46:42;;;;;;;;;;;12.50;99.90;;;;;;6124670;23;19909;-75
2021/11/08 08:49:07;;;;;;;;;;;12.50;99.90;;;;;;6125966;23;19905;-75
2021/11/08 08:51:33;;;;;;;;;;;12.60;99.90;;;;;;6128893;23;19956;-75
2021/11/08 08:53:59;;;;;;;;;;;12.60;99.90;;;;;;6126304;23;19943;-75
2021/11/08 08:56:25;;;;;;;;;;;12.60;99.90;;;;;;6126329;23;19905;-75
2021/11/08 08:58:52;;;;;;;;;;;12.60;99.90;;;;;;6125846;23;19905;-75
2021/11/08 09:01:18;;;;;;;;;;;12.60;99.90;;;;;;6099781;23;19916;-75
2021/11/08 09:03:43;;;;;;;;;;;12.60;99.90;;;;;;6128689;23;19909;-75
2021/11/08 09:06:09;;;;;;;;;;;12.60;99.90;;;;;;6131844;23;19909;-75
2021/11/08 09:08:37;;;;;;;;;;;12.70;99.90;;;;;;6129474;23;20326;-75
2021/11/08 09:11:03;;;;;;;;;;;12.70;99.90;;;;;;6126244;23;19936;-75
2021/11/08 09:13:29;;;;;;;;;;;12.70;99.90;;;;;;6100278;23;19956;-75
2021/11/08 09:15:54;;;;;;;;;;;12.80;99.90;;;;;;6126393;23;20326;-75
2021/11/08 09:18:20;;;;;;;;;;;12.80;99.90;;;;;;6099928;23;20285;-75
2021/11/08 09:20:46;;;;;;;;;;;12.70;99.90;;;;;;6124205;23;19939;-75
2021/11/08 09:23:12;;;;;;;;;;;12.80;99.90;;;;;;6126007;23;20504;-75
2021/11/08 09:25:38;;;;;;;;;;;12.70;99.90;;;;;;6125808;23;19925;-75
2021/11/08 09:28:04;;;;;;;;;;;12.70;99.90;;;;;;6125843;23;19905;-75
2021/11/08 09:30:32;;;;;;;;;;;12.70;99.90;;;;;;6124675;23;19916;-75
2021/11/08 09:32:58;;;;;;;;;;;12.70;99.90;;;;;;6125585;23;19959;-75
2021/11/08 09:35:30;;;;;;;;;;;12.70;99.90;;;;;;6124941;23;19905;-69
2021/11/08 09:37:56;;;;;;;;;;;12.80;99.90;;;;;;6124684;23;19941;-70
2021/11/08 09:40:23;;;;;;;;;;;12.90;99.90;;;;;;6098530;23;19956;-68
2021/11/08 09:42:51;;;;;;;;;;;12.90;99.90;;;;;;6125662;23;19949;-65
2021/11/08 09:45:17;;;;;;;;;;;12.80;99.90;;;;;;6125048;23;19920;-67
2021/11/08 09:47:44;;;;;;;;;;;12.70;99.90;;;;;;6125268;23;19940;-69
2021/11/08 09:50:10;;;;;;;;;;;12.80;99.90;;;;;;6128024;23;19917;-70
2021/11/08 09:52:38;;;;;;;;;;;12.90;99.90;;;;;;6128115;23;19980;-70
2021/11/08 09:55:04;;;;;;;;;;;12.90;99.90;;;;;;6127998;23;19905;-70
2021/11/08 09:57:30;;;;;;;;;;;12.90;99.90;;;;;;6126750;23;19909;-69
2021/11/08 09:59:56;;;;;;;;;;;12.80;99.90;;;;;;6125292;23;20003;-69
2021/11/08 10:02:22;;;;;;;;;;;13.00;99.90;;;;;;6125109;23;20010;-69
2021/11/08 10:04:48;;;;;;;;;;;13.10;99.90;;;;;;6125711;23;19980;-69
2021/11/08 10:07:14;;;;;;;;;;;13.10;99.90;;;;;;6125892;23;19905;-71
2021/11/08 10:09:40;;;;;;;;;;;13.10;99.90;;;;;;6125253;23;19955;-71
2021/11/08 10:12:09;;;;;;;;;;;13.20;99.90;;;;;;6125322;23;20242;-75
2021/11/08 10:14:35;;;;;;;;;;;13.10;99.90;;;;;;6126363;23;19905;-76
2021/11/08 10:17:01;;;;;;;;;;;13.10;99.90;;;;;;6125273;23;20335;-76
2021/11/08 10:19:27;;;;;;;;;;;13.10;99.90;;;;;;6125735;23;19916;-76
2021/11/08 10:21:54;;;;;;;;;;;13.10;99.90;;;;;;6125391;23;19909;-77
2021/11/08 10:24:23;;;;;;;;;;;13.10;99.90;;;;;;6125366;23;20249;-77
2021/11/08 10:26:51;;;;;;;;;;;13.10;99.90;;;;;;6124905;23;19905;-76
2021/11/08 10:29:18;;;;;;;;;;;13.00;99.90;;;;;;6125347;23;19905;-77
2021/11/08 10:31:55;;;;;;;;;;;13.10;99.90;;;;;;6125142;23;19905;-76
2021/11/08 10:34:22;;;;;;;;;;;13.10;99.90;;;;;;6124586;23;19936;-75
2021/11/08 10:37:08;;;;;;;;;;;13.10;99.90;;;;;;6125108;23;20257;-75
2021/11/08 10:39:35;;;;;;;;;;;13.10;99.90;;;;;;6124761;23;19905;-75
2021/11/08 10:42:01;;;;;;;;;;;13.00;99.90;;;;;;6125736;23;19915;-77
2021/11/08 10:44:28;;;;;;;;;;;13.00;99.90;;;;;;6125239;23;19945;-77
2021/11/08 10:46:58;;;;;;;;;;;13.10;99.90;;;;;;6126288;23;19912;-76
2021/11/08 10:49:26;;;;;;;;;;;13.10;99.90;;;;;;6125943;23;19905;-76
2021/11/08 10:51:54;;;;;;;;;;;13.00;99.90;;;;;;6125465;23;19905;-75
2021/11/08 10:54:21;;;;;;;;;;;13.00;99.90;;;;;;6127302;23;19940;-76
2021/11/08 10:56:52;;;;;;;;;;;13.00;99.90;;;;;;6127565;23;19912;-75
2021/11/08 10:59:20;;;;;;;;;;;13.00;99.90;;;;;;6125901;23;19905;-75
2021/11/08 11:01:47;;;;;;;;;;;12.90;99.90;;;;;;6126086;23;19944;-74
2021/11/08 11:04:14;;;;;;;;;;;12.90;99.90;;;;;;6124727;23;20325;-75
2021/11/08 11:06:44;;;;;;;;;;;12.90;99.90;;;;;;6125279;23;19948;-75
2021/11/08 11:09:13;;;;;;;;;;;12.80;99.90;;;;;;6125846;23;19916;-75
2021/11/08 11:11:38;;;;;;;;;;;12.90;99.90;;;;;;6125558;23;20219;-75
2021/11/08 11:14:04;;;;;;;;;;;12.90;99.90;;;;;;6126189;23;19982;-75
2021/11/08 11:16:33;;;;;;;;;;;12.90;99.90;;;;;;6125771;23;19911;-75
2021/11/08 11:19:04;;;;;;;;;;;12.90;99.90;;;;;;6126810;23;19928;-76
2021/11/08 11:21:29;;;;;;;;;;;12.90;99.90;;;;;;6125546;23;19963;-74
2021/11/08 11:24:02;;;;;;;;;;;12.90;99.90;;;;;;6127075;23;19909;-75
2021/11/08 11:26:33;;;;;;;;;;;12.90;99.90;;;;;;6126384;23;20581;-74
2021/11/08 11:28:59;;;;;;;;;;;12.90;99.90;;;;;;6126584;23;19912;-74
2021/11/08 11:31:26;;;;;;;;;;;12.80;99.90;;;;;;6125874;23;19905;-74
2021/11/08 11:33:54;;;;;;;;;;;12.80;99.90;;;;;;6126609;23;19904;-75
2021/11/08 11:36:20;;;;;;;;;;;12.90;99.90;;;;;;6126468;23;20100;-77
2021/11/08 11:38:50;;;;;;;;;;;12.90;99.90;;;;;;6126674;23;19905;-76
2021/11/08 11:41:16;;;;;;;;;;;12.80;99.90;;;;;;6099726;23;19905;-75
2021/11/08 11:43:51;;;;;;;;;;;12.80;99.90;;;;;;6126208;23;19912;-77
2021/11/08 11:46:18;;;;;;;;;;;12.70;99.90;;;;;;6126195;23;19905;-77
2021/11/08 11:48:44;;;;;;;;;;;12.70;99.90;;;;;;6126594;23;19952;-77
2021/11/08 11:51:31;;;;;;;;;;;12.70;99.90;;;;;;6126573;23;19913;-75
2021/11/08 11:53:57;;;;;;;;;;;12.70;99.90;;;;;;6125830;23;19941;-75
2021/11/08 11:56:24;;;;;;;;;;;12.80;99.90;;;;;;6126484;23;19905;-75
2021/11/08 11:58:50;;;;;;;;;;;12.80;99.90;;;;;;6100777;23;19909;-76
2021/11/08 12:01:21;;;;;;;;;;;12.80;99.90;;;;;;6127035;23;19912;-75
2021/11/08 12:03:47;;;;;;;;;;;12.80;99.90;;;;;;6125923;23;19905;-76
2021/11/08 12:06:15;;;;;;;;;;;12.80;99.90;;;;;;6124981;23;19905;-76
2021/11/08 12:08:42;;;;;;;;;;;12.80;99.90;;;;;;6126198;23;19928;-77
2021/11/08 12:11:08;;;;;;;;;;;12.80;99.90;;;;;;6126174;23;20326;-74
2021/11/08 12:13:40;;;;;;;;;;;12.80;99.90;;;;;;6126130;23;19905;-76
2021/11/08 12:16:18;;;;;;;;;;;12.80;99.90;;;;;;6126642;23;20355;-76
2021/11/08 12:18:46;;;;;;;;;;;12.80;99.90;;;;;;6125666;23;19932;-76
2021/11/08 12:21:24;;;;;;;;;;;12.90;99.90;;;;;;6125937;23;19964;-76
2021/11/08 12:23:50;;;;;;;;;;;13.10;99.90;;;;;;6123617;23;20306;-77
2021/11/08 12:26:17;;;;;;;;;;;13.30;99.90;;;;;;6123387;23;20465;-76
2021/11/08 12:28:45;;;;;;;;;;;13.30;99.90;;;;;;6124009;23;20285;-76
2021/11/08 12:31:11;;;;;;;;;;;13.30;99.90;;;;;;6124809;23;19909;-76
2021/11/08 12:33:40;;;;;;;;;;;13.30;99.90;;;;;;6125834;23;19905;-75
2021/11/08 12:36:06;;;;;;;;;;;13.30;99.90;;;;;;6124988;23;19905;-76
2021/11/08 12:38:37;;;;;;;;;;;13.40;99.90;;;;;;6124585;23;19920;-75
2021/11/08 12:41:03;;;;;;;;;;;13.40;99.90;;;;;;6124616;23;19940;-75
2021/11/08 12:43:31;;;;;;;;;;;13.40;99.90;;;;;;6125177;23;20251;-76
2021/11/08 12:46:07;;;;;;;;;;;13.30;99.90;;;;;;6124754;23;19960;-78
2021/11/08 12:48:33;;;;;;;;;;;13.30;99.90;;;;;;6125294;23;19905;-76
2021/11/08 12:51:00;;;;;;;;;;;13.30;99.90;;;;;;6125031;23;20346;-77
2021/11/08 12:53:28;;;;;;;;;;;13.30;99.90;;;;;;6125064;23;20384;-76
2021/11/08 12:55:54;;;;;;;;;;;13.30;99.90;;;;;;6125096;23;19935;-76
2021/11/08 12:58:30;;;;;;;;;;;13.40;99.90;;;;;;6125549;23;20016;-76
2021/11/08 13:00:56;;;;;;;;;;;13.30;99.90;;;;;;6125597;23;19913;-76
2021/11/08 13:03:30;;;;;;;;;;;13.30;99.90;;;;;;6125310;23;19909;-75
2021/11/08 13:05:58;;;;;;;;;;;13.20;99.90;;;;;;6124872;23;19915;-74
2021/11/08 13:08:27;;;;;;;;;;;13.20;99.90;;;;;;6124791;23;19905;-76
2021/11/08 13:10:56;;;;;;;;;;;13.20;99.90;;;;;;6098837;23;19916;-77
2021/11/08 13:13:22;;;;;;;;;;;13.20;99.90;;;;;;6125469;23;19941;-78
2021/11/08 13:15:48;;;;;;;;;;;13.20;99.90;;;;;;6124526;23;19912;-78
2021/11/08 13:18:14;;;;;;;;;;;13.20;99.90;;;;;;6099208;23;19904;-77
2021/11/08 13:20:44;;;;;;;;;;;13.20;99.90;;;;;;6125275;23;19916;-76
2021/11/08 13:23:11;;;;;;;;;;;13.30;99.90;;;;;;6124261;23;19913;-76
2021/11/08 13:25:48;;;;;;;;;;;13.30;99.90;;;;;;6124349;23;19909;-77
2021/11/08 13:28:16;;;;;;;;;;;13.30;99.90;;;;;;6125474;23;19905;-77
2021/11/08 13:30:46;;;;;;;;;;;13.40;99.90;;;;;;6125187;23;19905;-76
2021/11/08 13:33:13;;;;;;;;;;;13.40;99.90;;;;;;6123865;23;19909;-77
2021/11/08 13:35:40;;;;;;;;;;;13.50;99.90;;;;;;6129864;23;19905;-76
2021/11/08 13:38:14;;;;;;;;;;;13.40;99.90;;;;;;6130880;23;19924;-77
2021/11/08 13:40:40;;;;;;;;;;;13.40;99.90;;;;;;6130254;23;19940;-76
2021/11/08 13:43:07;;;;;;;;;;;13.50;99.90;;;;;;6130382;23;19913;-77
2021/11/08 13:45:42;;;;;;;;;;;13.50;99.90;;;;;;6126992;23;19979;-76
2021/11/08 13:48:17;;;;;;;;;;;13.60;99.90;;;;;;6124977;23;19905;-76
2021/11/08 13:50:42;;;;;;;;;;;13.60;99.90;;;;;;6099559;23;20230;-77
2021/11/08 13:53:08;;;;;;;;;;;13.50;99.90;;;;;;6125537;23;19963;-77
2021/11/08 13:55:34;;;;;;;;;;;13.60;99.90;;;;;;6105403;23;19916;-77
2021/11/08 13:58:01;;;;;;;;;;;13.50;99.90;;;;;;6129333;23;19916;-76
2021/11/08 14:00:26;;;;;;;;;;;13.50;99.90;;;;;;6133571;23;19905;-77
2021/11/08 14:02:52;;;;;;;;;;;13.40;99.90;;;;;;6133889;23;19951;-77
2021/11/08 14:05:18;;;;;;;;;;;13.40;99.90;;;;;;6133284;23;19921;-75
2021/11/08 14:07:43;;;;;;;;;;;13.50;99.90;;;;;;6125398;23;19912;-76
2021/11/08 14:10:10;;;;;;;;;;;13.50;99.90;;;;;;6124645;23;19916;-76
2021/11/08 14:12:36;;;;;;;;;;;13.40;99.90;;;;;;6124828;23;20326;-76
2021/11/08 14:15:04;;;;;;;;;;;13.40;99.90;;;;;;6124189;23;19905;-76
2021/11/08 14:17:31;;;;;;;;;;;13.40;99.90;;;;;;6123962;23;20385;-76
2021/11/08 14:20:06;;;;;;;;;;;13.50;99.90;;;;;;6124632;23;20357;-75
2021/11/08 14:22:33;;;;;;;;;;;13.50;99.90;;;;;;6099995;23;19928;-75
2021/11/08 14:25:00;;;;;;;;;;;13.50;99.90;;;;;;6130262;23;19916;-76
2021/11/08 14:27:29;;;;;;;;;;;13.40;99.90;;;;;;6136398;23;19909;-78
2021/11/08 14:29:56;;;;;;;;;;;13.50;99.90;;;;;;6136278;23;20242;-77
2021/11/08 14:32:26;;;;;;;;;;;13.50;99.90;;;;;;6131686;23;19905;-76
2021/11/08 14:35:18;;;;;;;;;;;13.50;99.90;;;;;;6103417;23;19976;-76
2021/11/08 14:38:11;;;;;;;;;;;13.50;99.90;;;;;;6126098;23;20264;-77
2021/11/08 14:40:41;;;;;;;;;;;13.40;99.90;;;;;;6125779;23;20348;-76
2021/11/08 14:43:12;;;;;;;;;;;13.40;99.90;;;;;;6127399;23;19963;-77
2021/11/08 14:45:38;;;;;;;;;;;13.30;99.90;;;;;;6125533;23;20353;-77
2021/11/08 14:48:04;;;;;;;;;;;13.30;99.90;;;;;;6127567;23;19905;-77
2021/11/08 14:50:30;;;;;;;;;;;13.30;99.90;;;;;;6128091;23;19909;-77
2021/11/08 14:52:57;;;;;;;;;;;13.30;99.90;;;;;;6127976;23;20345;-77
2021/11/08 14:55:28;;;;;;;;;;;13.20;99.90;;;;;;6127767;23;19904;-77
2021/11/08 14:57:54;;;;;;;;;;;13.20;99.90;;;;;;6127818;23;20233;-76
2021/11/08 15:00:22;;;;;;;;;;;13.10;99.90;;;;;;6124935;23;20289;-76
2021/11/08 15:02:48;;;;;;;;;;;13.00;99.90;;;;;;6098636;23;19912;-77
2021/11/08 15:05:25;;;;;;;;;;;13.00;99.90;;;;;;6125315;23;19934;-76
2021/11/08 15:08:14;;;;;;;;;;;12.90;99.90;;;;;;6126672;23;19905;-76
2021/11/08 15:10:41;;;;;;;;;;;12.90;99.90;;;;;;6115688;23;19936;-76
2021/11/08 15:13:09;;;;;;;;;;;12.80;99.90;;;;;;6100892;23;19953;-76
2021/11/08 15:15:45;;;;;;;;;;;12.70;99.90;;;;;;6127615;23;19912;-76
2021/11/08 15:18:29;;;;;;;;;;;12.60;99.90;;;;;;6127615;23;19904;-75
2021/11/08 15:20:55;;;;;;;;;;;12.50;99.90;;;;;;6126535;23;20341;-76
2021/11/08 15:23:23;;;;;;;;;;;12.50;99.90;;;;;;6126802;23;19909;-77
2021/11/08 15:25:50;;;;;;;;;;;12.40;99.90;;;;;;6125712;23;19912;-76
2021/11/08 15:28:20;;;;;;;;;;;12.30;99.90;;;;;;6125676;23;19909;-76
2021/11/08 15:31:05;;;;;;;;;;;12.30;99.90;;;;;;6125043;23;19909;-76
2021/11/08 15:33:39;;;;;;;;;;;12.20;99.90;;;;;;6126409;23;19916;-77
2021/11/08 15:36:05;;;;;;;;;;;12.20;99.90;;;;;;6125550;23;19909;-77
2021/11/08 15:38:33;;;;;;;;;;;12.10;99.90;;;;;;6125588;23;19905;-77
2021/11/08 15:41:03;;;;;;;;;;;12.10;99.90;;;;;;6099635;23;20338;-76
2021/11/08 15:43:28;;;;;;;;;;;12.10;99.90;;;;;;6125559;23;19909;-76
2021/11/08 15:45:59;;;;;;;;;;;12.00;99.90;;;;;;6125679;23;19944;-76
2021/11/08 15:48:25;;;;;;;;;;;12.00;99.90;;;;;;6099192;23;20325;-77
2021/11/08 15:50:50;;;;;;;;;;;12.00;99.90;;;;;;6125697;23;19917;-76
2021/11/08 15:53:16;;;;;;;;;;;12.00;99.90;;;;;;6125422;23;19909;-76
2021/11/08 15:55:42;;;;;;;;;;;12.00;99.90;;;;;;6125264;23;19928;-75
2021/11/08 15:58:08;;;;;;;;;;;12.00;99.90;;;;;;6126156;23;19905;-76
2021/11/08 16:00:35;;;;;;;;;;;12.00;99.90;;;;;;6099243;23;19905;-75